sensor_id;sensor_type;location;lat;lon;timestamp;temperature;humidity
22418;DHT22;11376;50.932;4.442;2023-10-13T00:01:50;18.10;99.90
22418;DHT22;11376;50.932;4.442;2023-10-13T00:04:18;18.10;99.90
22418;DHT22;11376;50.932;4.442;2023-10-13T00:06:48;18.10;99.90
22418;DHT22;11376;50.932;4.442;2023-10-13T00:09:13;18.10;99.90
22418;DHT22;11376;50.932;4.442;2023-10-13T00:11:43;18.10;99.90
22418;DHT22;11376;50.932;4.442;2023-10-13T00:14:13;18.10;99.90
22418;DHT22;11376;50.932;4.442;2023-10-13T00:16:43;18.10;99.90
22418;DHT22;11376;50.932;4.442;2023-10-13T00:19:32;18.10;99.90
22418;DHT22;11376;50.932;4.442;2023-10-13T00:22:08;18.10;99.90
22418;DHT22;11376;50.932;4.442;2023-10-13T00:24:38;18.10;99.90
22418;DHT22;11376;50.932;4.442;2023-10-13T00:27:16;18.10;99.90
22418;DHT22;11376;50.932;4.442;2023-10-13T00:30:06;18.20;99.90
22418;DHT22;11376;50.932;4.442;2023-10-13T00:32:51;18.10;99.90
22418;DHT22;11376;50.932;4.442;2023-10-13T00:35:28;18.20;99.90
22418;DHT22;11376;50.932;4.442;2023-10-13T00:38:07;18.20;99.90
22418;DHT22;11376;50.932;4.442;2023-10-13T00:40:39;18.20;99.90
22418;DHT22;11376;50.932;4.442;2023-10-13T00:43:05;18.10;99.90
22418;DHT22;11376;50.932;4.442;2023-10-13T00:45:49;18.10;99.90
22418;DHT22;11376;50.932;4.442;2023-10-13T00:48:44;18.10;99.90
22418;DHT22;11376;50.932;4.442;2023-10-13T00:51:17;18.10;99.90
22418;DHT22;11376;50.932;4.442;2023-10-13T00:54:04;18.10;99.90
22418;DHT22;11376;50.932;4.442;2023-10-13T00:56:38;18.10;99.90
22418;DHT22;11376;50.932;4.442;2023-10-13T00:59:06;18.10;99.90
22418;DHT22;11376;50.932;4.442;2023-10-13T01:01:35;18.10;99.90
22418;DHT22;11376;50.932;4.442;2023-10-13T01:04:02;18.10;99.90
22418;DHT22;11376;50.932;4.442;2023-10-13T01:06:30;18.10;99.90
22418;DHT22;11376;50.932;4.442;2023-10-13T01:09:15;18.10;99.90
22418;DHT22;11376;50.932;4.442;2023-10-13T01:11:49;18.10;99.90
22418;DHT22;11376;50.932;4.442;2023-10-13T01:14:18;18.10;99.90
22418;DHT22;11376;50.932;4.442;2023-10-13T01:16:46;18.20;99.90
22418;DHT22;11376;50.932;4.442;2023-10-13T01:19:13;18.20;99.90
22418;DHT22;11376;50.932;4.442;2023-10-13T01:21:39;18.20;99.90
22418;DHT22;11376;50.932;4.442;2023-10-13T01:24:13;18.20;99.90
22418;DHT22;11376;50.932;4.442;2023-10-13T01:26:43;18.20;99.90
22418;DHT22;11376;50.932;4.442;2023-10-13T01:29:09;18.20;99.90
22418;DHT22;11376;50.932;4.442;2023-10-13T01:31:43;18.30;99.90
22418;DHT22;11376;50.932;4.442;2023-10-13T01:34:15;18.30;99.90
22418;DHT22;11376;50.932;4.442;2023-10-13T01:36:57;18.30;99.90
22418;DHT22;11376;50.932;4.442;2023-10-13T01:39:30;18.30;99.90
22418;DHT22;11376;50.932;4.442;2023-10-13T01:41:56;18.40;99.90
22418;DHT22;11376;50.932;4.442;2023-10-13T01:44:26;18.30;99.90
22418;DHT22;11376;50.932;4.442;2023-10-13T01:46:56;18.30;99.90
22418;DHT22;11376;50.932;4.442;2023-10-13T01:49:25;18.30;99.90
22418;DHT22;11376;50.932;4.442;2023-10-13T01:51:51;18.40;99.90
22418;DHT22;11376;50.932;4.442;2023-10-13T01:54:16;18.40;99.90
22418;DHT22;11376;50.932;4.442;2023-10-13T01:56:42;18.40;99.90
22418;DHT22;11376;50.932;4.442;2023-10-13T01:59:13;18.40;99.90
22418;DHT22;11376;50.932;4.442;2023-10-13T02:01:40;18.40;99.90
22418;DHT22;11376;50.932;4.442;2023-10-13T02:04:07;18.40;99.90
22418;DHT22;11376;50.932;4.442;2023-10-13T02:06:34;18.40;99.90
22418;DHT22;11376;50.932;4.442;2023-10-13T02:09:06;18.40;99.90
22418;DHT22;11376;50.932;4.442;2023-10-13T02:11:44;18.30;99.90
22418;DHT22;11376;50.932;4.442;2023-10-13T02:14:14;18.40;99.90
22418;DHT22;11376;50.932;4.442;2023-10-13T02:16:43;18.40;99.90
22418;DHT22;11376;50.932;4.442;2023-10-13T02:19:12;18.40;99.90
22418;DHT22;11376;50.932;4.442;2023-10-13T02:21:41;18.40;99.90
22418;DHT22;11376;50.932;4.442;2023-10-13T02:24:09;18.40;99.90
22418;DHT22;11376;50.932;4.442;2023-10-13T02:26:41;18.40;99.90
22418;DHT22;11376;50.932;4.442;2023-10-13T02:29:07;18.40;99.90
22418;DHT22;11376;50.932;4.442;2023-10-13T02:31:35;18.40;99.90
22418;DHT22;11376;50.932;4.442;2023-10-13T02:34:01;18.40;99.90
22418;DHT22;11376;50.932;4.442;2023-10-13T02:36:32;18.40;99.90
22418;DHT22;11376;50.932;4.442;2023-10-13T02:39:17;18.40;99.90
22418;DHT22;11376;50.932;4.442;2023-10-13T02:41:48;18.40;99.90
22418;DHT22;11376;50.932;4.442;2023-10-13T02:44:14;18.40;99.90
22418;DHT22;11376;50.932;4.442;2023-10-13T02:46:56;18.50;99.90
22418;DHT22;11376;50.932;4.442;2023-10-13T02:49:29;18.50;99.90
22418;DHT22;11376;50.932;4.442;2023-10-13T02:52:00;18.40;99.90
22418;DHT22;11376;50.932;4.442;2023-10-13T02:54:31;18.40;99.90
22418;DHT22;11376;50.932;4.442;2023-10-13T02:56:57;18.30;99.90
22418;DHT22;11376;50.932;4.442;2023-10-13T02:59:28;18.20;99.90
22418;DHT22;11376;50.932;4.442;2023-10-13T03:02:02;18.20;99.90
22418;DHT22;11376;50.932;4.442;2023-10-13T03:04:49;18.20;99.90
22418;DHT22;11376;50.932;4.442;2023-10-13T03:07:15;18.20;99.90
22418;DHT22;11376;50.932;4.442;2023-10-13T03:09:44;18.20;99.90
22418;DHT22;11376;50.932;4.442;2023-10-13T03:12:16;18.20;99.90
22418;DHT22;11376;50.932;4.442;2023-10-13T03:14:42;18.20;99.90
22418;DHT22;11376;50.932;4.442;2023-10-13T03:17:13;18.20;99.90
22418;DHT22;11376;50.932;4.442;2023-10-13T03:19:48;18.20;99.90
22418;DHT22;11376;50.932;4.442;2023-10-13T03:22:17;18.20;99.90
22418;DHT22;11376;50.932;4.442;2023-10-13T03:24:44;18.20;99.90
22418;DHT22;11376;50.932;4.442;2023-10-13T03:27:13;18.20;99.90
22418;DHT22;11376;50.932;4.442;2023-10-13T03:29:44;18.20;99.90
22418;DHT22;11376;50.932;4.442;2023-10-13T03:32:11;18.20;99.90
22418;DHT22;11376;50.932;4.442;2023-10-13T03:34:38;18.20;99.90
22418;DHT22;11376;50.932;4.442;2023-10-13T03:37:07;18.30;99.90
22418;DHT22;11376;50.932;4.442;2023-10-13T03:39:44;18.30;99.90
22418;DHT22;11376;50.932;4.442;2023-10-13T03:42:11;18.30;99.90
22418;DHT22;11376;50.932;4.442;2023-10-13T03:44:45;18.30;99.90
22418;DHT22;11376;50.932;4.442;2023-10-13T03:47:12;18.30;99.90
22418;DHT22;11376;50.932;4.442;2023-10-13T03:49:45;18.30;99.90
22418;DHT22;11376;50.932;4.442;2023-10-13T03:52:11;18.30;99.90
22418;DHT22;11376;50.932;4.442;2023-10-13T03:54:39;18.30;99.90
22418;DHT22;11376;50.932;4.442;2023-10-13T03:57:07;18.20;99.90
22418;DHT22;11376;50.932;4.442;2023-10-13T03:59:37;18.20;99.90
22418;DHT22;11376;50.932;4.442;2023-10-13T04:02:03;18.20;99.90
22418;DHT22;11376;50.932;4.442;2023-10-13T04:04:37;18.20;99.90
22418;DHT22;11376;50.932;4.442;2023-10-13T04:07:15;18.20;99.90
22418;DHT22;11376;50.932;4.442;2023-10-13T04:10:04;18.20;99.90
22418;DHT22;11376;50.932;4.442;2023-10-13T04:13:04;18.20;99.90
22418;DHT22;11376;50.932;4.442;2023-10-13T04:15:49;18.20;99.90
22418;DHT22;11376;50.932;4.442;2023-10-13T04:18:33;18.20;99.90
22418;DHT22;11376;50.932;4.442;2023-10-13T04:21:17;18.20;99.90
22418;DHT22;11376;50.932;4.442;2023-10-13T04:24:01;18.20;99.90
22418;DHT22;11376;50.932;4.442;2023-10-13T04:26:47;18.20;99.90
22418;DHT22;11376;50.932;4.442;2023-10-13T04:29:31;18.20;99.90
22418;DHT22;11376;50.932;4.442;2023-10-13T04:32:15;18.20;99.90
22418;DHT22;11376;50.932;4.442;2023-10-13T04:34:56;18.20;99.90
22418;DHT22;11376;50.932;4.442;2023-10-13T04:37:42;18.20;99.90
22418;DHT22;11376;50.932;4.442;2023-10-13T04:40:27;18.20;99.90
22418;DHT22;11376;50.932;4.442;2023-10-13T04:43:00;18.10;99.90
22418;DHT22;11376;50.932;4.442;2023-10-13T04:45:52;18.10;99.90
22418;DHT22;11376;50.932;4.442;2023-10-13T04:48:21;18.10;99.90
22418;DHT22;11376;50.932;4.442;2023-10-13T04:50:47;18.10;99.90
22418;DHT22;11376;50.932;4.442;2023-10-13T04:53:17;18.10;99.90
22418;DHT22;11376;50.932;4.442;2023-10-13T04:55:59;18.10;99.90
22418;DHT22;11376;50.932;4.442;2023-10-13T04:58:31;18.10;99.90
22418;DHT22;11376;50.932;4.442;2023-10-13T05:01:04;18.10;99.90
22418;DHT22;11376;50.932;4.442;2023-10-13T05:04:02;18.10;99.90
22418;DHT22;11376;50.932;4.442;2023-10-13T05:06:47;18.10;99.90
22418;DHT22;11376;50.932;4.442;2023-10-13T05:09:32;18.20;99.90
22418;DHT22;11376;50.932;4.442;2023-10-13T05:12:16;18.20;99.90
22418;DHT22;11376;50.932;4.442;2023-10-13T05:15:00;18.20;99.90
22418;DHT22;11376;50.932;4.442;2023-10-13T05:17:44;18.20;99.90
22418;DHT22;11376;50.932;4.442;2023-10-13T05:20:28;18.10;99.90
22418;DHT22;11376;50.932;4.442;2023-10-13T05:23:13;18.20;99.90
22418;DHT22;11376;50.932;4.442;2023-10-13T05:26:01;18.20;99.90
22418;DHT22;11376;50.932;4.442;2023-10-13T05:28:45;18.20;99.90
22418;DHT22;11376;50.932;4.442;2023-10-13T05:31:29;18.20;99.90
22418;DHT22;11376;50.932;4.442;2023-10-13T05:34:13;18.20;99.90
22418;DHT22;11376;50.932;4.442;2023-10-13T05:36:57;18.20;99.90
22418;DHT22;11376;50.932;4.442;2023-10-13T05:39:41;18.20;99.90
22418;DHT22;11376;50.932;4.442;2023-10-13T05:42:25;18.20;99.90
22418;DHT22;11376;50.932;4.442;2023-10-13T05:45:10;18.20;99.90
22418;DHT22;11376;50.932;4.442;2023-10-13T05:48:05;18.20;99.90
22418;DHT22;11376;50.932;4.442;2023-10-13T05:50:39;18.10;99.90
22418;DHT22;11376;50.932;4.442;2023-10-13T05:53:43;18.20;99.90
22418;DHT22;11376;50.932;4.442;2023-10-13T05:56:27;18.10;99.90
22418;DHT22;11376;50.932;4.442;2023-10-13T05:59:11;18.20;99.90
22418;DHT22;11376;50.932;4.442;2023-10-13T06:01:55;18.20;99.90
22418;DHT22;11376;50.932;4.442;2023-10-13T06:04:39;18.20;99.90
22418;DHT22;11376;50.932;4.442;2023-10-13T06:07:23;18.20;99.90
22418;DHT22;11376;50.932;4.442;2023-10-13T06:10:07;18.20;99.90
22418;DHT22;11376;50.932;4.442;2023-10-13T06:12:51;18.20;99.90
22418;DHT22;11376;50.932;4.442;2023-10-13T06:15:36;18.20;99.90
22418;DHT22;11376;50.932;4.442;2023-10-13T06:18:20;18.20;99.90
22418;DHT22;11376;50.932;4.442;2023-10-13T06:21:04;18.20;99.90
22418;DHT22;11376;50.932;4.442;2023-10-13T06:23:48;18.20;99.90
22418;DHT22;11376;50.932;4.442;2023-10-13T06:26:32;18.20;99.90
22418;DHT22;11376;50.932;4.442;2023-10-13T06:29:17;18.30;99.90
22418;DHT22;11376;50.932;4.442;2023-10-13T06:31:45;18.30;99.90
22418;DHT22;11376;50.932;4.442;2023-10-13T06:34:11;18.40;99.90
22418;DHT22;11376;50.932;4.442;2023-10-13T06:36:41;18.50;99.90
22418;DHT22;11376;50.932;4.442;2023-10-13T06:39:07;18.50;99.90
22418;DHT22;11376;50.932;4.442;2023-10-13T06:42:02;18.50;99.90
22418;DHT22;11376;50.932;4.442;2023-10-13T06:44:28;18.60;99.90
22418;DHT22;11376;50.932;4.442;2023-10-13T06:47:03;18.70;99.90
22418;DHT22;11376;50.932;4.442;2023-10-13T06:49:29;18.70;99.90
22418;DHT22;11376;50.932;4.442;2023-10-13T06:51:55;18.80;99.90
22418;DHT22;11376;50.932;4.442;2023-10-13T06:54:25;18.90;99.90
22418;DHT22;11376;50.932;4.442;2023-10-13T06:56:53;19.00;99.90
22418;DHT22;11376;50.932;4.442;2023-10-13T06:59:19;18.90;99.90
22418;DHT22;11376;50.932;4.442;2023-10-13T07:01:45;19.00;99.90
22418;DHT22;11376;50.932;4.442;2023-10-13T07:04:17;19.00;99.90
22418;DHT22;11376;50.932;4.442;2023-10-13T07:06:44;19.10;99.90
22418;DHT22;11376;50.932;4.442;2023-10-13T07:09:17;19.20;99.90
22418;DHT22;11376;50.932;4.442;2023-10-13T07:12:04;19.30;99.90
22418;DHT22;11376;50.932;4.442;2023-10-13T07:14:45;19.40;99.90
22418;DHT22;11376;50.932;4.442;2023-10-13T07:17:17;19.40;99.90
22418;DHT22;11376;50.932;4.442;2023-10-13T07:19:50;19.50;99.90
22418;DHT22;11376;50.932;4.442;2023-10-13T07:22:19;19.50;99.90
22418;DHT22;11376;50.932;4.442;2023-10-13T07:24:46;19.50;99.90
22418;DHT22;11376;50.932;4.442;2023-10-13T07:27:22;19.60;99.90
22418;DHT22;11376;50.932;4.442;2023-10-13T07:29:55;19.70;99.90
22418;DHT22;11376;50.932;4.442;2023-10-13T07:32:43;19.80;99.90
22418;DHT22;11376;50.932;4.442;2023-10-13T07:35:12;19.80;99.90
22418;DHT22;11376;50.932;4.442;2023-10-13T07:37:41;19.80;99.90
22418;DHT22;11376;50.932;4.442;2023-10-13T07:40:10;19.80;99.90
22418;DHT22;11376;50.932;4.442;2023-10-13T07:42:54;19.90;99.90
22418;DHT22;11376;50.932;4.442;2023-10-13T07:45:30;19.90;99.90
22418;DHT22;11376;50.932;4.442;2023-10-13T07:48:11;20.00;99.90
22418;DHT22;11376;50.932;4.442;2023-10-13T07:51:00;20.00;99.90
22418;DHT22;11376;50.932;4.442;2023-10-13T07:53:41;20.00;99.90
22418;DHT22;11376;50.932;4.442;2023-10-13T07:56:10;19.90;99.90
22418;DHT22;11376;50.932;4.442;2023-10-13T07:58:39;20.10;99.90
22418;DHT22;11376;50.932;4.442;2023-10-13T08:01:26;20.10;99.90
22418;DHT22;11376;50.932;4.442;2023-10-13T08:03:52;20.20;99.90
22418;DHT22;11376;50.932;4.442;2023-10-13T08:06:41;20.30;99.90
22418;DHT22;11376;50.932;4.442;2023-10-13T08:09:09;20.40;99.90
22418;DHT22;11376;50.932;4.442;2023-10-13T08:11:35;20.40;99.90
22418;DHT22;11376;50.932;4.442;2023-10-13T08:14:03;20.40;99.90
22418;DHT22;11376;50.932;4.442;2023-10-13T08:16:48;20.40;99.90
22418;DHT22;11376;50.932;4.442;2023-10-13T08:19:27;20.60;99.90
22418;DHT22;11376;50.932;4.442;2023-10-13T08:21:54;20.60;99.90
22418;DHT22;11376;50.932;4.442;2023-10-13T08:24:25;20.70;99.90
22418;DHT22;11376;50.932;4.442;2023-10-13T08:27:03;20.70;99.90
22418;DHT22;11376;50.932;4.442;2023-10-13T08:29:46;20.70;99.90
22418;DHT22;11376;50.932;4.442;2023-10-13T08:32:34;20.70;99.90
22418;DHT22;11376;50.932;4.442;2023-10-13T08:35:20;20.70;99.90
22418;DHT22;11376;50.932;4.442;2023-10-13T08:37:55;20.80;99.90
22418;DHT22;11376;50.932;4.442;2023-10-13T08:40:23;20.90;99.90
22418;DHT22;11376;50.932;4.442;2023-10-13T08:43:12;20.90;99.90
22418;DHT22;11376;50.932;4.442;2023-10-13T08:45:39;21.00;99.90
22418;DHT22;11376;50.932;4.442;2023-10-13T08:48:06;21.10;99.90
22418;DHT22;11376;50.932;4.442;2023-10-13T08:56:07;21.20;99.90
22418;DHT22;11376;50.932;4.442;2023-10-13T08:58:41;21.20;99.90
22418;DHT22;11376;50.932;4.442;2023-10-13T09:01:26;21.30;99.90
22418;DHT22;11376;50.932;4.442;2023-10-13T09:06:55;21.30;99.90
22418;DHT22;11376;50.932;4.442;2023-10-13T09:12:29;21.30;99.90
22418;DHT22;11376;50.932;4.442;2023-10-13T09:15:00;21.40;99.90
22418;DHT22;11376;50.932;4.442;2023-10-13T09:20:27;21.40;99.90
22418;DHT22;11376;50.932;4.442;2023-10-13T09:23:14;21.50;99.90
22418;DHT22;11376;50.932;4.442;2023-10-13T09:26:10;21.50;99.90
22418;DHT22;11376;50.932;4.442;2023-10-13T09:28:37;21.60;99.90
22418;DHT22;11376;50.932;4.442;2023-10-13T09:31:03;21.60;99.90
22418;DHT22;11376;50.932;4.442;2023-10-13T09:33:33;21.70;99.90
22418;DHT22;11376;50.932;4.442;2023-10-13T09:36:04;21.70;99.90
22418;DHT22;11376;50.932;4.442;2023-10-13T09:38:38;21.70;99.90
22418;DHT22;11376;50.932;4.442;2023-10-13T09:41:08;21.60;99.90
22418;DHT22;11376;50.932;4.442;2023-10-13T09:43:47;21.70;99.90
22418;DHT22;11376;50.932;4.442;2023-10-13T09:46:20;21.70;99.90
22418;DHT22;11376;50.932;4.442;2023-10-13T09:48:49;21.70;99.90
22418;DHT22;11376;50.932;4.442;2023-10-13T09:51:30;21.80;99.90
22418;DHT22;11376;50.932;4.442;2023-10-13T09:54:08;21.90;99.90
22418;DHT22;11376;50.932;4.442;2023-10-13T09:56:48;21.90;99.90
22418;DHT22;11376;50.932;4.442;2023-10-13T09:59:32;21.90;99.90
22418;DHT22;11376;50.932;4.442;2023-10-13T10:02:05;21.90;99.90
22418;DHT22;11376;50.932;4.442;2023-10-13T10:04:37;21.90;99.90
22418;DHT22;11376;50.932;4.442;2023-10-13T10:07:10;21.90;99.90
22418;DHT22;11376;50.932;4.442;2023-10-13T10:09:36;22.00;99.90
22418;DHT22;11376;50.932;4.442;2023-10-13T10:12:51;22.00;99.90
22418;DHT22;11376;50.932;4.442;2023-10-13T10:15:44;22.00;99.90
22418;DHT22;11376;50.932;4.442;2023-10-13T10:18:20;22.10;99.90
22418;DHT22;11376;50.932;4.442;2023-10-13T10:20:51;22.10;99.90
22418;DHT22;11376;50.932;4.442;2023-10-13T10:23:27;22.20;99.90
22418;DHT22;11376;50.932;4.442;2023-10-13T10:25:54;22.30;99.90
22418;DHT22;11376;50.932;4.442;2023-10-13T10:28:41;22.30;99.90
22418;DHT22;11376;50.932;4.442;2023-10-13T10:31:10;22.40;99.90
22418;DHT22;11376;50.932;4.442;2023-10-13T10:33:43;22.50;99.90
22418;DHT22;11376;50.932;4.442;2023-10-13T10:36:09;22.50;99.90
22418;DHT22;11376;50.932;4.442;2023-10-13T10:38:52;22.60;99.90
22418;DHT22;11376;50.932;4.442;2023-10-13T10:41:28;22.70;99.90
22418;DHT22;11376;50.932;4.442;2023-10-13T10:44:14;22.70;99.90
22418;DHT22;11376;50.932;4.442;2023-10-13T10:46:49;22.80;99.90
22418;DHT22;11376;50.932;4.442;2023-10-13T10:49:22;22.80;99.90
22418;DHT22;11376;50.932;4.442;2023-10-13T10:52:03;23.00;99.90
22418;DHT22;11376;50.932;4.442;2023-10-13T10:54:33;23.20;99.90
22418;DHT22;11376;50.932;4.442;2023-10-13T10:56:59;23.50;99.90
22418;DHT22;11376;50.932;4.442;2023-10-13T10:59:37;23.70;99.90
22418;DHT22;11376;50.932;4.442;2023-10-13T11:02:07;23.50;99.90
22418;DHT22;11376;50.932;4.442;2023-10-13T11:04:34;23.40;99.90
22418;DHT22;11376;50.932;4.442;2023-10-13T11:07:00;23.40;99.90
22418;DHT22;11376;50.932;4.442;2023-10-13T11:09:30;23.40;99.90
22418;DHT22;11376;50.932;4.442;2023-10-13T11:12:02;23.40;99.90
22418;DHT22;11376;50.932;4.442;2023-10-13T11:15:03;23.40;99.90
22418;DHT22;11376;50.932;4.442;2023-10-13T11:17:34;23.60;99.90
22418;DHT22;11376;50.932;4.442;2023-10-13T11:20:17;23.60;99.90
22418;DHT22;11376;50.932;4.442;2023-10-13T11:22:47;23.70;99.90
22418;DHT22;11376;50.932;4.442;2023-10-13T11:25:23;23.90;99.90
22418;DHT22;11376;50.932;4.442;2023-10-13T11:27:49;24.00;99.90
22418;DHT22;11376;50.932;4.442;2023-10-13T11:30:18;24.10;99.90
22418;DHT22;11376;50.932;4.442;2023-10-13T11:33:04;24.10;99.90
22418;DHT22;11376;50.932;4.442;2023-10-13T11:35:38;24.00;99.90
22418;DHT22;11376;50.932;4.442;2023-10-13T11:38:27;24.20;99.90
22418;DHT22;11376;50.932;4.442;2023-10-13T11:40:58;24.20;99.90
22418;DHT22;11376;50.932;4.442;2023-10-13T11:43:34;24.10;99.90
22418;DHT22;11376;50.932;4.442;2023-10-13T11:46:13;24.10;99.90
22418;DHT22;11376;50.932;4.442;2023-10-13T11:48:42;24.40;99.90
22418;DHT22;11376;50.932;4.442;2023-10-13T11:51:12;25.20;99.90
22418;DHT22;11376;50.932;4.442;2023-10-13T11:53:50;25.80;99.90
22418;DHT22;11376;50.932;4.442;2023-10-13T11:56:19;26.30;99.90
22418;DHT22;11376;50.932;4.442;2023-10-13T11:58:46;26.30;99.90
22418;DHT22;11376;50.932;4.442;2023-10-13T12:01:13;26.00;99.90
22418;DHT22;11376;50.932;4.442;2023-10-13T12:03:42;25.40;99.90
22418;DHT22;11376;50.932;4.442;2023-10-13T12:06:27;24.90;99.90
22418;DHT22;11376;50.932;4.442;2023-10-13T12:11:43;24.50;99.90
22418;DHT22;11376;50.932;4.442;2023-10-13T12:14:11;24.30;99.90
22418;DHT22;11376;50.932;4.442;2023-10-13T12:16:47;24.20;99.90
22418;DHT22;11376;50.932;4.442;2023-10-13T12:19:20;24.00;99.90
22418;DHT22;11376;50.932;4.442;2023-10-13T12:21:53;23.90;99.90
22418;DHT22;11376;50.932;4.442;2023-10-13T12:24:23;23.80;99.90
22418;DHT22;11376;50.932;4.442;2023-10-13T12:27:04;23.70;99.90
22418;DHT22;11376;50.932;4.442;2023-10-13T12:29:49;23.60;99.90
22418;DHT22;11376;50.932;4.442;2023-10-13T12:32:15;23.60;99.90
22418;DHT22;11376;50.932;4.442;2023-10-13T12:34:46;23.50;99.90
22418;DHT22;11376;50.932;4.442;2023-10-13T12:37:32;23.50;99.90
22418;DHT22;11376;50.932;4.442;2023-10-13T12:40:17;23.40;99.90
22418;DHT22;11376;50.932;4.442;2023-10-13T12:43:03;23.40;99.90
22418;DHT22;11376;50.932;4.442;2023-10-13T12:45:48;23.30;99.90
22418;DHT22;11376;50.932;4.442;2023-10-13T12:48:34;23.30;99.90
22418;DHT22;11376;50.932;4.442;2023-10-13T12:51:19;23.40;99.90
22418;DHT22;11376;50.932;4.442;2023-10-13T12:53:57;23.40;99.90
22418;DHT22;11376;50.932;4.442;2023-10-13T12:56:40;23.40;99.90
22418;DHT22;11376;50.932;4.442;2023-10-13T12:59:11;23.40;99.90
22418;DHT22;11376;50.932;4.442;2023-10-13T13:01:40;23.30;99.90
22418;DHT22;11376;50.932;4.442;2023-10-13T13:04:10;23.40;99.90
22418;DHT22;11376;50.932;4.442;2023-10-13T13:06:51;23.40;99.90
22418;DHT22;11376;50.932;4.442;2023-10-13T13:09:16;23.50;99.90
22418;DHT22;11376;50.932;4.442;2023-10-13T13:11:52;23.60;99.90
22418;DHT22;11376;50.932;4.442;2023-10-13T13:14:25;23.60;99.90
22418;DHT22;11376;50.932;4.442;2023-10-13T13:17:02;23.60;99.90
22418;DHT22;11376;50.932;4.442;2023-10-13T13:19:35;23.60;99.90
22418;DHT22;11376;50.932;4.442;2023-10-13T13:22:08;23.60;99.90
22418;DHT22;11376;50.932;4.442;2023-10-13T13:24:38;23.60;99.90
22418;DHT22;11376;50.932;4.442;2023-10-13T13:27:09;23.70;99.90
22418;DHT22;11376;50.932;4.442;2023-10-13T13:29:35;23.70;99.90
22418;DHT22;11376;50.932;4.442;2023-10-13T13:32:03;23.60;99.90
22418;DHT22;11376;50.932;4.442;2023-10-13T13:34:30;23.50;99.90
22418;DHT22;11376;50.932;4.442;2023-10-13T13:36:57;23.50;99.90
22418;DHT22;11376;50.932;4.442;2023-10-13T13:39:27;23.50;99.90
22418;DHT22;11376;50.932;4.442;2023-10-13T13:41:56;23.50;99.90
22418;DHT22;11376;50.932;4.442;2023-10-13T13:44:25;23.70;99.90
22418;DHT22;11376;50.932;4.442;2023-10-13T13:47:01;23.80;99.90
22418;DHT22;11376;50.932;4.442;2023-10-13T13:49:30;24.00;99.90
22418;DHT22;11376;50.932;4.442;2023-10-13T13:52:08;24.10;99.90
22418;DHT22;11376;50.932;4.442;2023-10-13T13:54:35;24.10;99.90
22418;DHT22;11376;50.932;4.442;2023-10-13T13:57:01;24.20;99.90
22418;DHT22;11376;50.932;4.442;2023-10-13T13:59:27;24.40;99.90
22418;DHT22;11376;50.932;4.442;2023-10-13T14:01:59;24.10;99.90
22418;DHT22;11376;50.932;4.442;2023-10-13T14:04:25;23.90;99.90
22418;DHT22;11376;50.932;4.442;2023-10-13T14:06:51;23.70;99.90
22418;DHT22;11376;50.932;4.442;2023-10-13T14:09:16;23.60;99.90
22418;DHT22;11376;50.932;4.442;2023-10-13T14:11:58;23.60;99.90
22418;DHT22;11376;50.932;4.442;2023-10-13T14:14:55;23.60;99.90
22418;DHT22;11376;50.932;4.442;2023-10-13T14:17:22;23.50;99.90
22418;DHT22;11376;50.932;4.442;2023-10-13T14:19:57;23.50;99.90
22418;DHT22;11376;50.932;4.442;2023-10-13T14:22:23;23.40;99.90
22418;DHT22;11376;50.932;4.442;2023-10-13T14:24:52;23.40;99.90
22418;DHT22;11376;50.932;4.442;2023-10-13T14:27:21;23.30;99.90
22418;DHT22;11376;50.932;4.442;2023-10-13T14:29:49;23.20;99.90
22418;DHT22;11376;50.932;4.442;2023-10-13T14:32:19;23.20;99.90
22418;DHT22;11376;50.932;4.442;2023-10-13T14:34:47;23.20;99.90
22418;DHT22;11376;50.932;4.442;2023-10-13T14:37:19;23.10;99.90
22418;DHT22;11376;50.932;4.442;2023-10-13T14:39:56;23.00;99.90
22418;DHT22;11376;50.932;4.442;2023-10-13T14:42:26;22.90;99.90
22418;DHT22;11376;50.932;4.442;2023-10-13T14:44:52;22.90;99.90
22418;DHT22;11376;50.932;4.442;2023-10-13T14:47:25;22.90;99.90
22418;DHT22;11376;50.932;4.442;2023-10-13T14:49:54;22.80;99.90
22418;DHT22;11376;50.932;4.442;2023-10-13T14:52:21;22.80;99.90
22418;DHT22;11376;50.932;4.442;2023-10-13T14:54:46;22.70;99.90
22418;DHT22;11376;50.932;4.442;2023-10-13T14:57:13;22.60;99.90
22418;DHT22;11376;50.932;4.442;2023-10-13T14:59:39;22.70;99.90
22418;DHT22;11376;50.932;4.442;2023-10-13T15:02:05;22.60;99.90
22418;DHT22;11376;50.932;4.442;2023-10-13T15:04:30;22.40;99.90
22418;DHT22;11376;50.932;4.442;2023-10-13T15:07:00;22.30;99.90
22418;DHT22;11376;50.932;4.442;2023-10-13T15:09:29;22.30;99.90
22418;DHT22;11376;50.932;4.442;2023-10-13T15:11:55;22.20;99.90
22418;DHT22;11376;50.932;4.442;2023-10-13T15:14:21;22.20;99.90
22418;DHT22;11376;50.932;4.442;2023-10-13T15:16:48;22.20;99.90
22418;DHT22;11376;50.932;4.442;2023-10-13T15:19:14;22.20;99.90
22418;DHT22;11376;50.932;4.442;2023-10-13T15:21:42;22.20;99.90
22418;DHT22;11376;50.932;4.442;2023-10-13T15:24:09;22.20;99.90
22418;DHT22;11376;50.932;4.442;2023-10-13T15:26:43;22.20;99.90
22418;DHT22;11376;50.932;4.442;2023-10-13T15:29:17;22.20;99.90
22418;DHT22;11376;50.932;4.442;2023-10-13T15:31:47;22.20;99.90
22418;DHT22;11376;50.932;4.442;2023-10-13T15:34:24;22.20;99.90
22418;DHT22;11376;50.932;4.442;2023-10-13T15:36:53;22.10;99.90
22418;DHT22;11376;50.932;4.442;2023-10-13T15:39:20;22.10;99.90
22418;DHT22;11376;50.932;4.442;2023-10-13T15:41:50;22.10;99.90
22418;DHT22;11376;50.932;4.442;2023-10-13T15:44:19;22.10;99.90
22418;DHT22;11376;50.932;4.442;2023-10-13T15:46:46;22.10;99.90
22418;DHT22;11376;50.932;4.442;2023-10-13T15:49:15;22.10;99.90
22418;DHT22;11376;50.932;4.442;2023-10-13T15:51:41;22.00;99.90
22418;DHT22;11376;50.932;4.442;2023-10-13T15:54:07;22.10;99.90
22418;DHT22;11376;50.932;4.442;2023-10-13T15:56:47;22.10;99.90
22418;DHT22;11376;50.932;4.442;2023-10-13T15:59:14;22.10;99.90
22418;DHT22;11376;50.932;4.442;2023-10-13T16:01:40;22.10;99.90
22418;DHT22;11376;50.932;4.442;2023-10-13T16:04:06;22.10;99.90
22418;DHT22;11376;50.932;4.442;2023-10-13T16:06:43;22.10;99.90
22418;DHT22;11376;50.932;4.442;2023-10-13T16:09:16;22.00;99.90
22418;DHT22;11376;50.932;4.442;2023-10-13T16:11:45;21.80;99.90
22418;DHT22;11376;50.932;4.442;2023-10-13T16:14:12;21.70;99.90
22418;DHT22;11376;50.932;4.442;2023-10-13T16:16:44;21.80;99.90
22418;DHT22;11376;50.932;4.442;2023-10-13T16:19:15;21.80;99.90
22418;DHT22;11376;50.932;4.442;2023-10-13T16:21:52;21.80;99.90
22418;DHT22;11376;50.932;4.442;2023-10-13T16:24:18;21.80;99.90
22418;DHT22;11376;50.932;4.442;2023-10-13T16:26:48;21.80;99.90
22418;DHT22;11376;50.932;4.442;2023-10-13T16:29:21;21.70;99.90
22418;DHT22;11376;50.932;4.442;2023-10-13T16:31:48;20.70;99.90